Montrose Regional Airport
KMTJ : now visible

Airfield :











YOU CAN JOIN US ON...

 
LOGIN :

Register | Disclaimer

   EN    FR    IT 

 









Legend :    VFR   Marginal VFR   IFR   Intensive IFR   Very Intensive IFR
Visi :
Ceiling :
>= 8 km
>= 3000ft
5 to 8 km
1000 to 3000 ft
1500m to 5 km
500 to 1000 ft
800 to 1500m
200 to 500 ft
< 800m
< 200 ft
Symbols :   Thunderstorms  Fog  Heavy snow  Heavy precipitations  Wind > 20 kt






- Airport Elevation : 5759 ft


KMTJ - Montrose Regional

CURRENT METAR :
  • 211753Z AUTO VRB04KT 10SM CLR 24/04 A3027 RMK AO2 SLP176 T02440044 10244 20111 58006

EXPIRED METARs :
  • 211653Z AUTO 00000KT 10SM CLR 23/02 A3029 RMK AO2 SLP185 T02330022
  • 211553Z AUTO 00000KT 10SM CLR 19/03 A3030 RMK AO2 SLP192 T01940028

TAF KMTJ
Valid from the 21 at 18:00 until the 22 at 18:00 UTC


211722Z 2118/2218 31006KT P6SM SKC
FM220000 20008KT P6SM SCT150
FM220300 13011KT P6SM SCT200
FM220800 13005KT P6SM SCT200
KZDV FIR / North America



MET'MAP, your aeronautical weather chart ! - Copyright ORBIFLY December 2007 - Disclaimer

ORBIFLY MET'MAP TEAM :

Programming & Development : Alexandra Zaïnal
Concept & original design : Baudouin d'Aumeries
Assistance for programming : Marc-Olivier Méhu
Technical & hardware support : Manuel Goepfert

Contact : metmap@orbifly.com




SOURCES & CREDITS :

   NOAA       Earth
Advisory